createdAt,value
2019-02-20T00:00:02.166Z,4.97
2019-02-20T00:02:38.385Z,5.30
2019-02-20T00:05:07.586Z,4.40
2019-02-20T00:07:36.723Z,4.20
2019-02-20T00:10:05.879Z,3.83
2019-02-20T00:12:35.002Z,4.10
2019-02-20T00:15:04.654Z,4.63
2019-02-20T00:17:33.866Z,5.07
2019-02-20T00:20:03.980Z,4.70
2019-02-20T00:22:40.067Z,4.93
2019-02-20T00:25:04.280Z,4.57
2019-02-20T00:27:35.084Z,5.37
2019-02-20T00:30:06.585Z,4.73
2019-02-20T00:32:35.734Z,4.53
2019-02-20T00:35:07.072Z,5.23
2019-02-20T00:37:36.312Z,4.50
2019-02-20T00:40:08.161Z,4.47
2019-02-20T00:42:37.445Z,4.40
2019-02-20T00:45:13.537Z,4.97
2019-02-20T00:47:44.322Z,4.80
2019-02-20T00:50:14.591Z,4.77
2019-02-20T00:52:50.156Z,5.27
2019-02-20T00:55:18.583Z,5.13
2019-02-20T00:57:47.850Z,4.50
2019-02-20T01:00:17.312Z,4.57
2019-02-20T01:02:46.500Z,4.63
2019-02-20T01:05:15.962Z,4.67
2019-02-20T01:07:45.179Z,4.63
2019-02-20T01:10:14.302Z,4.67
2019-02-20T01:12:45.760Z,4.80
2019-02-20T01:15:14.817Z,4.57
2019-02-20T01:17:49.386Z,4.40
2019-02-20T01:20:18.455Z,4.30
2019-02-20T01:22:47.606Z,4.73
2019-02-20T01:25:16.685Z,4.80
2019-02-20T01:27:46.834Z,4.63
2019-02-20T01:30:15.903Z,4.27
2019-02-20T01:32:45.107Z,4.50
2019-02-20T01:35:14.277Z,4.43
2019-02-20T01:37:43.627Z,4.20
2019-02-20T01:40:12.801Z,5.13
2019-02-20T01:42:41.879Z,3.67
2019-02-20T01:45:11.028Z,4.93
2019-02-20T01:47:40.116Z,5.03
2019-02-20T01:50:09.295Z,5.03
2019-02-20T01:52:38.329Z,4.70
2019-02-20T01:55:08.607Z,5.00
2019-02-20T01:57:38.815Z,5.67
2019-02-20T02:00:13.901Z,6.30
2019-02-20T02:02:43.905Z,5.57
2019-02-20T02:05:15.725Z,5.53
2019-02-20T02:07:43.842Z,5.23
2019-02-20T02:10:13.252Z,4.40
2019-02-20T02:12:47.688Z,5.13
2019-02-20T02:15:20.584Z,4.70
2019-02-20T02:17:48.750Z,5.70
2019-02-20T02:20:17.955Z,4.40
2019-02-20T02:22:47.016Z,4.80
2019-02-20T02:25:16.166Z,4.77
2019-02-20T02:27:50.110Z,4.13
2019-02-20T02:30:32.760Z,5.10
2019-02-20T02:33:01.841Z,4.87
2019-02-20T02:35:30.982Z,5.37
2019-02-20T02:38:00.148Z,4.93
2019-02-20T02:40:29.287Z,4.13
2019-02-20T02:42:58.632Z,4.27
2019-02-20T02:45:34.181Z,4.27
2019-02-20T02:48:03.407Z,5.13
2019-02-20T02:50:32.707Z,4.90
2019-02-20T02:53:01.822Z,5.10
2019-02-20T02:55:31.060Z,4.83
2019-02-20T02:58:01.945Z,5.30
2019-02-20T03:00:31.138Z,5.20
2019-02-20T03:03:00.210Z,4.60
2019-02-20T03:05:29.373Z,5.33
2019-02-20T03:07:58.505Z,4.80
2019-02-20T03:10:38.738Z,4.97
2019-02-20T03:13:07.874Z,4.77
2019-02-20T03:15:36.974Z,5.10
2019-02-20T03:18:06.126Z,5.27
2019-02-20T03:20:35.222Z,5.20
2019-02-20T03:23:04.367Z,5.13
2019-02-20T03:25:33.521Z,4.90
2019-02-20T03:28:08.153Z,4.27
2019-02-20T03:30:37.435Z,4.50
2019-02-20T03:33:06.603Z,5.50
2019-02-20T03:35:35.793Z,4.43
2019-02-20T03:38:04.951Z,4.77
2019-02-20T03:40:34.131Z,5.13
2019-02-20T03:43:03.211Z,4.80
2019-02-20T03:45:32.412Z,5.00
2019-02-20T03:48:01.739Z,4.50
2019-02-20T03:50:30.886Z,5.13
2019-02-20T03:53:01.012Z,5.40
2019-02-20T03:55:30.101Z,4.60
2019-02-20T03:57:59.235Z,5.07
2019-02-20T04:00:28.386Z,5.20
2019-02-20T04:02:57.559Z,5.13
2019-02-20T04:05:32.730Z,5.30
2019-02-20T04:08:02.029Z,5.37
2019-02-20T04:10:33.153Z,5.20
2019-02-20T04:13:06.721Z,5.13
2019-02-20T04:15:35.870Z,4.97
2019-02-20T04:18:05.293Z,4.53
2019-02-20T04:20:34.428Z,4.97
2019-02-20T04:23:03.655Z,4.97
2019-02-20T04:25:32.805Z,4.93
2019-02-20T04:28:01.938Z,5.40
2019-02-20T04:30:31.057Z,4.83
2019-02-20T04:33:00.561Z,5.10
2019-02-20T04:35:29.793Z,4.97
2019-02-20T04:38:00.849Z,4.93
2019-02-20T04:40:41.659Z,5.63
2019-02-20T04:43:10.868Z,5.40
2019-02-20T04:45:40.078Z,5.03
2019-02-20T04:48:09.174Z,5.10
2019-02-20T04:50:38.306Z,5.53
2019-02-20T04:53:07.782Z,5.07
2019-02-20T04:55:37.842Z,4.60
2019-02-20T04:58:17.744Z,4.97
2019-02-20T05:00:47.179Z,5.33
2019-02-20T05:03:16.295Z,5.07
2019-02-20T05:05:47.644Z,4.70
2019-02-20T05:08:18.024Z,5.30
2019-02-20T05:10:47.205Z,6.10
2019-02-20T05:13:16.581Z,5.20
2019-02-20T05:15:45.730Z,4.53
2019-02-20T05:18:14.893Z,5.10
2019-02-20T05:20:46.124Z,5.77
2019-02-20T05:23:15.232Z,4.80
2019-02-20T05:25:44.493Z,5.03
2019-02-20T05:28:13.635Z,4.67
2019-02-20T05:30:42.819Z,5.47
2019-02-20T05:33:13.078Z,4.97
2019-02-20T05:35:48.528Z,5.47
2019-02-20T05:38:18.837Z,4.97
2019-02-20T05:40:48.249Z,5.50
2019-02-20T05:43:17.492Z,4.93
2019-02-20T05:45:46.644Z,5.70
2019-02-20T05:48:15.821Z,6.00
2019-02-20T05:50:45.048Z,5.47
2019-02-20T05:53:14.129Z,5.47
2019-02-20T05:55:43.338Z,5.93
2019-02-20T05:58:14.820Z,5.43
2019-02-20T06:00:44.101Z,6.17
2019-02-20T06:03:21.436Z,5.60
2019-02-20T06:05:52.200Z,5.43
2019-02-20T06:08:21.517Z,5.63
2019-02-20T06:10:50.736Z,5.63
2019-02-20T06:13:19.852Z,6.00
2019-02-20T06:15:49.091Z,5.73
2019-02-20T06:18:18.166Z,6.80
2019-02-20T06:20:47.288Z,9.67
2019-02-20T06:23:16.642Z,7.57
2019-02-20T06:25:46.018Z,6.23
2019-02-20T06:28:15.279Z,5.60
2019-02-20T06:30:44.747Z,6.70
2019-02-20T06:33:14.148Z,6.37
2019-02-20T06:35:43.320Z,6.03
2019-02-20T06:38:12.482Z,7.53
2019-02-20T06:40:42.146Z,8.07
2019-02-20T06:43:11.322Z,8.73
2019-02-20T06:45:40.705Z,12.33
2019-02-20T06:48:12.727Z,6.50
2019-02-20T06:50:41.939Z,6.17
2019-02-20T06:53:19.911Z,6.50
2019-02-20T06:55:49.817Z,7.67
2019-02-20T06:58:20.176Z,8.80
2019-02-20T07:00:51.630Z,7.73
2019-02-20T07:03:20.841Z,7.33
2019-02-20T07:05:51.468Z,7.17
2019-02-20T07:08:43.803Z,7.90
2019-02-20T07:11:32.777Z,7.40
2019-02-20T07:14:34.037Z,6.60
2019-02-20T07:17:21.441Z,6.83
2019-02-20T07:20:08.448Z,6.00
2019-02-20T07:22:55.880Z,6.50
2019-02-20T07:25:36.520Z,6.43
2019-02-20T07:28:16.580Z,6.57
2019-02-20T07:30:45.814Z,6.60
2019-02-20T07:33:15.482Z,6.33
2019-02-20T07:35:44.754Z,6.20
2019-02-20T07:38:14.383Z,6.53
2019-02-20T07:40:43.999Z,7.27
2019-02-20T07:43:13.197Z,6.83
2019-02-20T07:45:42.435Z,7.40
2019-02-20T07:48:11.573Z,7.20
2019-02-20T07:50:40.808Z,6.60
2019-02-20T07:53:18.114Z,7.83
2019-02-20T07:55:46.470Z,7.23
2019-02-20T07:58:15.766Z,8.10
2019-02-20T08:00:45.025Z,7.80
2019-02-20T08:03:15.383Z,7.47
2019-02-20T08:05:44.691Z,7.50
2019-02-20T08:08:24.673Z,7.87
2019-02-20T08:10:53.901Z,7.60
2019-02-20T08:13:24.810Z,7.13
2019-02-20T08:15:54.565Z,6.93
2019-02-20T08:18:23.748Z,7.97
2019-02-20T08:20:53.261Z,7.77
2019-02-20T08:23:22.456Z,7.83
2019-02-20T08:25:55.862Z,7.57
2019-02-20T08:28:25.692Z,7.40
2019-02-20T08:30:57.301Z,7.10
2019-02-20T08:33:26.628Z,7.03
2019-02-20T08:35:56.812Z,7.53
2019-02-20T08:38:27.298Z,8.10
2019-02-20T08:40:56.753Z,7.60
2019-02-20T08:43:26.055Z,7.57
2019-02-20T08:45:56.819Z,6.97
2019-02-20T08:48:26.523Z,7.30
2019-02-20T08:50:57.139Z,7.27
2019-02-20T08:53:26.263Z,7.83
2019-02-20T08:55:55.426Z,6.63
2019-02-20T08:58:38.592Z,7.10
2019-02-20T09:01:07.815Z,6.93
2019-02-20T09:03:38.106Z,7.50
2019-02-20T09:06:07.312Z,6.40
2019-02-20T09:08:36.520Z,6.57
2019-02-20T09:11:14.748Z,5.90
2019-02-20T09:13:43.876Z,6.50
2019-02-20T09:16:13.032Z,6.53
2019-02-20T09:18:42.260Z,5.60
2019-02-20T09:21:11.573Z,6.17
2019-02-20T09:23:42.268Z,6.27
2019-02-20T09:26:12.875Z,6.43
2019-02-20T09:28:42.007Z,6.13
2019-02-20T09:31:13.648Z,6.20
2019-02-20T09:33:42.937Z,6.83
2019-02-20T09:36:12.311Z,6.50
2019-02-20T09:38:43.997Z,6.23
2019-02-20T09:41:13.347Z,6.33
2019-02-20T09:43:43.310Z,6.97
2019-02-20T09:46:12.896Z,6.60
2019-02-20T09:48:42.710Z,6.37
2019-02-20T09:51:12.027Z,6.87
2019-02-20T09:53:41.284Z,6.17
2019-02-20T09:56:10.463Z,6.57
2019-02-20T09:58:39.643Z,6.10
2019-02-20T10:01:08.870Z,6.90
2019-02-20T10:03:38.511Z,6.50
2019-02-20T10:06:12.913Z,6.10
2019-02-20T10:08:41.275Z,6.37
2019-02-20T10:11:22.613Z,5.73
2019-02-20T10:13:53.451Z,5.50
2019-02-20T10:16:22.558Z,6.70
2019-02-20T10:18:51.893Z,6.73
2019-02-20T10:21:22.202Z,5.63
2019-02-20T10:23:53.682Z,5.50
2019-02-20T10:26:25.973Z,5.23
2019-02-20T10:28:55.291Z,4.93
2019-02-20T10:31:24.597Z,5.23
2019-02-20T10:33:54.071Z,5.30
2019-02-20T10:36:23.757Z,4.53
2019-02-20T10:38:52.952Z,4.63
2019-02-20T10:41:22.097Z,4.80
2019-02-20T10:43:51.544Z,4.33
2019-02-20T10:46:20.856Z,4.57
2019-02-20T10:48:49.992Z,4.90
2019-02-20T10:51:19.259Z,5.77
2019-02-20T10:53:48.564Z,5.23
2019-02-20T10:56:17.682Z,6.00
2019-02-20T10:58:59.668Z,5.40
2019-02-20T11:01:29.221Z,5.57
2019-02-20T11:04:00.618Z,5.40
2019-02-20T11:06:29.785Z,4.70
2019-02-20T11:08:59.403Z,6.10
2019-02-20T11:11:30.403Z,4.87
2019-02-20T11:13:59.717Z,5.00
2019-02-20T11:16:28.866Z,5.60
2019-02-20T11:18:58.170Z,5.27
2019-02-20T11:21:29.700Z,5.07
2019-02-20T11:24:11.601Z,5.13
2019-02-20T11:26:52.215Z,4.53
2019-02-20T11:29:11.586Z,4.40
2019-02-20T11:31:41.020Z,4.63
2019-02-20T11:34:10.262Z,4.57
2019-02-20T11:36:42.741Z,4.77
2019-02-20T11:39:12.051Z,5.03
2019-02-20T11:41:41.290Z,4.73
2019-02-20T11:44:10.469Z,4.47
2019-02-20T11:46:39.804Z,5.10
2019-02-20T11:49:09.827Z,5.30
2019-02-20T11:51:39.188Z,5.03
2019-02-20T11:54:08.309Z,4.83
2019-02-20T11:56:38.120Z,4.90
2019-02-20T11:59:07.392Z,4.80
2019-02-20T12:01:36.696Z,4.20
2019-02-20T12:04:06.991Z,4.53
2019-02-20T12:06:36.170Z,3.83
2019-02-20T12:09:06.634Z,3.90
2019-02-20T12:11:36.778Z,3.10
2019-02-20T12:14:15.555Z,2.73
2019-02-20T12:16:44.850Z,3.50
2019-02-20T12:19:14.002Z,2.90
2019-02-20T12:21:43.233Z,2.90
2019-02-20T12:24:12.354Z,3.03
2019-02-20T12:26:48.646Z,3.00
2019-02-20T12:29:19.068Z,3.13
2019-02-20T12:31:52.542Z,2.57
2019-02-20T12:34:20.694Z,3.23
2019-02-20T12:36:53.047Z,3.43
2019-02-20T12:39:27.772Z,2.83
2019-02-20T12:41:57.667Z,2.80
2019-02-20T12:44:29.477Z,2.33
2019-02-20T12:46:59.905Z,2.70
2019-02-20T12:49:29.265Z,2.53
2019-02-20T12:52:02.617Z,2.13
2019-02-20T12:54:32.164Z,3.00
2019-02-20T12:57:01.440Z,2.53
2019-02-20T12:59:30.567Z,2.60
2019-02-20T13:02:00.762Z,2.67
2019-02-20T13:04:31.037Z,3.10
2019-02-20T13:07:00.288Z,2.90
2019-02-20T13:09:29.867Z,3.60
2019-02-20T13:11:59.133Z,3.27
2019-02-20T13:14:28.847Z,3.10
2019-02-20T13:17:06.745Z,3.47
2019-02-20T13:19:39.619Z,3.63
2019-02-20T13:22:08.809Z,3.43
2019-02-20T13:24:38.081Z,3.53
2019-02-20T13:27:10.055Z,3.07
2019-02-20T13:29:38.782Z,3.43
2019-02-20T13:32:09.301Z,3.47
2019-02-20T13:34:38.690Z,3.50
2019-02-20T13:37:07.878Z,3.67
2019-02-20T13:39:37.029Z,3.57
2019-02-20T13:42:19.910Z,3.87
2019-02-20T13:44:58.716Z,3.83
2019-02-20T13:47:29.733Z,3.70
2019-02-20T13:49:58.900Z,4.33
2019-02-20T13:52:28.094Z,3.70
2019-02-20T13:54:57.546Z,3.90
2019-02-20T13:57:33.568Z,3.83
2019-02-20T14:00:02.862Z,4.10
2019-02-20T14:02:32.041Z,5.07
2019-02-20T14:05:01.277Z,4.10
2019-02-20T14:07:33.750Z,3.70
2019-02-20T14:10:06.172Z,4.23
2019-02-20T14:12:37.190Z,4.33
2019-02-20T14:15:08.662Z,3.93
2019-02-20T14:17:40.942Z,4.20
2019-02-20T14:20:12.558Z,3.83
2019-02-20T14:22:42.506Z,4.13
2019-02-20T14:25:15.393Z,4.63
2019-02-20T14:27:44.680Z,5.17
2019-02-20T14:30:13.847Z,4.97
2019-02-20T14:32:43.207Z,4.67
2019-02-20T14:35:18.664Z,4.80
2019-02-20T14:37:47.912Z,4.30
2019-02-20T14:40:18.867Z,4.37
2019-02-20T14:42:48.036Z,4.60
2019-02-20T14:45:19.871Z,4.53
2019-02-20T14:47:49.642Z,4.40
2019-02-20T14:50:19.421Z,4.40
2019-02-20T14:52:48.641Z,4.67
2019-02-20T14:55:18.990Z,4.63
2019-02-20T14:57:48.553Z,4.30
2019-02-20T15:00:19.120Z,4.90
2019-02-20T15:02:48.265Z,4.00
2019-02-20T15:05:19.251Z,4.57
2019-02-20T15:07:48.476Z,4.73
2019-02-20T15:10:25.275Z,4.47
2019-02-20T15:12:56.916Z,4.17
2019-02-20T15:15:26.128Z,4.37
2019-02-20T15:17:55.332Z,4.50
2019-02-20T15:20:26.437Z,4.67
2019-02-20T15:22:56.241Z,4.27
2019-02-20T15:25:26.097Z,4.17
2019-02-20T15:28:02.551Z,4.63
2019-02-20T15:30:32.253Z,4.27
2019-02-20T15:33:01.666Z,4.20
2019-02-20T15:35:30.936Z,4.37
2019-02-20T15:38:00.590Z,5.03
2019-02-20T15:40:31.165Z,5.07
2019-02-20T15:43:02.782Z,5.67
2019-02-20T15:45:32.234Z,5.23
2019-02-20T15:48:01.376Z,5.20
2019-02-20T15:50:30.715Z,5.33
2019-02-20T15:53:02.484Z,5.53
2019-02-20T15:55:31.727Z,4.97
2019-02-20T15:58:02.057Z,5.13
2019-02-20T16:00:31.403Z,5.77
2019-02-20T16:03:08.184Z,5.60
2019-02-20T16:05:39.043Z,5.20
2019-02-20T16:08:08.264Z,5.20
2019-02-20T16:10:37.470Z,5.87
2019-02-20T16:13:06.587Z,5.13
2019-02-20T16:15:36.266Z,5.17
2019-02-20T16:18:05.505Z,5.40
2019-02-20T16:20:34.746Z,5.50
2019-02-20T16:23:03.868Z,4.70
2019-02-20T16:25:34.205Z,5.03
2019-02-20T16:28:03.724Z,5.83
2019-02-20T16:30:33.263Z,5.13
2019-02-20T16:33:04.445Z,5.50
2019-02-20T16:35:36.076Z,6.50
2019-02-20T16:38:05.460Z,6.37
2019-02-20T16:40:45.380Z,6.10
2019-02-20T16:43:15.036Z,7.20
2019-02-20T16:45:46.845Z,7.77
2019-02-20T16:48:16.077Z,6.73
2019-02-20T16:50:45.446Z,7.30
2019-02-20T16:53:14.714Z,7.00
2019-02-20T16:55:45.080Z,6.60
2019-02-20T16:58:14.909Z,6.50
2019-02-20T17:00:44.182Z,7.40
2019-02-20T17:03:13.590Z,6.60
2019-02-20T17:05:51.014Z,6.03
2019-02-20T17:08:20.349Z,5.73
2019-02-20T17:10:49.474Z,5.57
2019-02-20T17:13:19.070Z,5.30
2019-02-20T17:15:48.840Z,5.97
2019-02-20T17:18:18.080Z,6.37
2019-02-20T17:20:47.263Z,9.60
2019-02-20T17:23:16.866Z,5.47
2019-02-20T17:25:49.086Z,4.77
2019-02-20T17:28:18.369Z,4.33
2019-02-20T17:31:02.204Z,4.67
2019-02-20T17:33:34.115Z,4.80
2019-02-20T17:36:05.032Z,4.37
2019-02-20T17:38:35.097Z,4.50
2019-02-20T17:41:05.475Z,4.50
2019-02-20T17:43:48.528Z,4.73
2019-02-20T17:46:18.742Z,5.00
2019-02-20T17:48:48.175Z,5.17
2019-02-20T17:51:17.327Z,4.73
2019-02-20T17:53:46.713Z,4.63
2019-02-20T17:56:15.926Z,4.37
2019-02-20T17:58:45.215Z,4.87
2019-02-20T18:01:16.353Z,5.30
2019-02-20T18:03:45.521Z,5.40
2019-02-20T18:06:15.819Z,5.20
2019-02-20T18:08:46.054Z,4.60
2019-02-20T18:11:15.256Z,5.27
2019-02-20T18:13:44.528Z,5.20
2019-02-20T18:16:15.853Z,4.97
2019-02-20T18:18:45.414Z,4.63
2019-02-20T18:21:15.208Z,5.23
2019-02-20T18:23:44.584Z,5.37
2019-02-20T18:26:33.304Z,5.27
2019-02-20T18:29:09.747Z,5.60
2019-02-20T18:31:39.237Z,5.67
2019-02-20T18:34:08.427Z,6.10
2019-02-20T18:36:37.703Z,5.53
2019-02-20T18:39:07.771Z,5.67
2019-02-20T18:41:36.956Z,5.63
2019-02-20T18:44:13.917Z,5.47
2019-02-20T18:46:43.835Z,5.17
2019-02-20T18:49:12.971Z,5.60
2019-02-20T18:51:42.230Z,5.03
2019-02-20T18:54:21.727Z,5.10
2019-02-20T18:56:50.919Z,5.13
2019-02-20T18:59:30.667Z,4.87
2019-02-20T19:01:59.822Z,4.87
2019-02-20T19:04:29.009Z,4.73
2019-02-20T19:06:58.216Z,4.77
2019-02-20T19:09:27.393Z,4.83
2019-02-20T19:12:21.212Z,4.73
2019-02-20T19:15:13.634Z,5.00
2019-02-20T19:17:56.746Z,5.87
2019-02-20T19:20:31.824Z,6.23
2019-02-20T19:23:19.417Z,5.63
2019-02-20T19:26:12.403Z,5.67
2019-02-20T19:28:56.951Z,6.03
2019-02-20T19:31:39.467Z,5.60
2019-02-20T19:34:40.289Z,6.73
2019-02-20T19:37:12.798Z,5.80
2019-02-20T19:40:00.367Z,6.07
2019-02-20T19:42:47.848Z,6.63
2019-02-20T19:45:20.917Z,5.83
2019-02-20T19:48:21.489Z,15.37
2019-02-20T19:51:01.694Z,5.43
2019-02-20T19:53:52.037Z,5.47
2019-02-20T19:56:33.301Z,67.70
2019-02-20T19:59:34.925Z,34.70
2019-02-20T20:02:28.155Z,4.70
2019-02-20T20:05:32.953Z,7.03
2019-02-20T20:08:13.314Z,10.93
2019-02-20T20:10:51.501Z,6.40
2019-02-20T20:13:32.555Z,151.60
2019-02-20T20:16:21.107Z,63.30
2019-02-20T20:19:13.610Z,65.57
2019-02-20T20:21:51.123Z,83.27
2019-02-20T20:24:32.629Z,51.55
2019-02-20T20:27:29.836Z,69.20
2019-02-20T20:30:11.032Z,98.40
2019-02-20T20:33:10.323Z,125.02
2019-02-20T20:35:54.841Z,126.72
2019-02-20T20:38:28.945Z,48.90
2019-02-20T20:41:11.175Z,121.40
2019-02-20T20:43:48.883Z,94.25
2019-02-20T20:46:25.319Z,107.85
2019-02-20T20:49:06.336Z,109.52
2019-02-20T20:51:41.176Z,32.93
2019-02-20T20:54:22.205Z,6.37
2019-02-20T20:57:00.418Z,4.60
2019-02-20T20:59:38.354Z,1.47
2019-02-20T21:02:17.740Z,6.05
2019-02-20T21:04:59.706Z,103.58
2019-02-20T21:07:37.986Z,131.57
2019-02-20T21:10:16.250Z,94.47
2019-02-20T21:13:14.292Z,102.80
2019-02-20T21:16:10.513Z,68.45
2019-02-20T21:19:00.539Z,70.25
2019-02-20T21:22:03.033Z,70.78
2019-02-20T21:24:50.040Z,56.53
2019-02-20T21:27:31.256Z,31.60
2019-02-20T21:30:15.329Z,5.37
2019-02-20T21:33:05.085Z,78.87
2019-02-20T21:35:38.121Z,54.35
2019-02-20T21:38:32.597Z,97.50
2019-02-20T21:41:10.944Z,111.00
2019-02-20T21:43:50.867Z,126.97
2019-02-20T21:46:41.825Z,99.42
2019-02-20T21:49:14.047Z,70.35
2019-02-20T21:51:50.485Z,75.92
2019-02-20T21:54:39.288Z,100.33
2019-02-20T21:57:14.144Z,77.70
2019-02-20T21:59:56.225Z,108.40
2019-02-20T22:02:37.571Z,13.70
2019-02-20T22:05:12.567Z,14.15
2019-02-20T22:07:59.819Z,4.55
2019-02-20T22:10:34.695Z,157.45
2019-02-20T22:13:12.559Z,123.30
2019-02-20T22:16:10.331Z,29.10
2019-02-20T22:19:11.252Z,31.95
2019-02-20T22:21:46.197Z,11.48
2019-02-20T22:24:23.833Z,5.55
2019-02-20T22:32:27.244Z,0.00
